sensor_id;sensor_type;location;lat;lon;timestamp;P1;durP1;ratioP1;P2;durP2;ratioP2
20144;SDS011;10233;50.814;6.590;2022-12-07T00:00:41;29.93;;;15.60;;
20144;SDS011;10233;50.814;6.590;2022-12-07T00:01:42;24.97;;;14.07;;
20144;SDS011;10233;50.814;6.590;2022-12-07T00:02:44;26.83;;;14.25;;
20144;SDS011;10233;50.814;6.590;2022-12-07T00:03:45;24.90;;;13.83;;
20144;SDS011;10233;50.814;6.590;2022-12-07T00:04:48;25.33;;;13.45;;
20144;SDS011;10233;50.814;6.590;2022-12-07T00:05:49;26.00;;;14.35;;
20144;SDS011;10233;50.814;6.590;2022-12-07T00:06:51;24.30;;;13.73;;
20144;SDS011;10233;50.814;6.590;2022-12-07T00:07:53;25.75;;;14.13;;
20144;SDS011;10233;50.814;6.590;2022-12-07T00:08:53;26.10;;;13.75;;
20144;SDS011;10233;50.814;6.590;2022-12-07T00:09:53;26.40;;;13.60;;
20144;SDS011;10233;50.814;6.590;2022-12-07T00:10:54;28.30;;;14.90;;
20144;SDS011;10233;50.814;6.590;2022-12-07T00:11:54;28.93;;;15.00;;
20144;SDS011;10233;50.814;6.590;2022-12-07T00:12:55;25.75;;;14.55;;
20144;SDS011;10233;50.814;6.590;2022-12-07T00:13:59;26.93;;;15.17;;
20144;SDS011;10233;50.814;6.590;2022-12-07T00:15:01;27.58;;;14.00;;
20144;SDS011;10233;50.814;6.590;2022-12-07T00:16:03;25.55;;;13.75;;
20144;SDS011;10233;50.814;6.590;2022-12-07T00:17:08;26.92;;;14.48;;
20144;SDS011;10233;50.814;6.590;2022-12-07T00:18:08;25.23;;;14.27;;
20144;SDS011;10233;50.814;6.590;2022-12-07T00:19:09;28.17;;;14.82;;
20144;SDS011;10233;50.814;6.590;2022-12-07T00:20:11;26.67;;;14.13;;
20144;SDS011;10233;50.814;6.590;2022-12-07T00:21:13;26.33;;;13.82;;
20144;SDS011;10233;50.814;6.590;2022-12-07T00:22:17;24.00;;;14.10;;
20144;SDS011;10233;50.814;6.590;2022-12-07T00:23:18;27.37;;;13.50;;
20144;SDS011;10233;50.814;6.590;2022-12-07T00:24:18;25.20;;;13.50;;
20144;SDS011;10233;50.814;6.590;2022-12-07T00:25:19;26.03;;;13.37;;
20144;SDS011;10233;50.814;6.590;2022-12-07T00:26:23;24.92;;;14.30;;
20144;SDS011;10233;50.814;6.590;2022-12-07T00:27:26;27.17;;;14.10;;
20144;SDS011;10233;50.814;6.590;2022-12-07T00:28:27;25.87;;;13.23;;
20144;SDS011;10233;50.814;6.590;2022-12-07T00:29:27;26.80;;;13.77;;
20144;SDS011;10233;50.814;6.590;2022-12-07T00:30:28;24.25;;;13.35;;
20144;SDS011;10233;50.814;6.590;2022-12-07T00:31:31;24.67;;;13.40;;
20144;SDS011;10233;50.814;6.590;2022-12-07T00:32:35;21.70;;;12.45;;
20144;SDS011;10233;50.814;6.590;2022-12-07T00:33:35;23.87;;;12.77;;
20144;SDS011;10233;50.814;6.590;2022-12-07T00:34:36;22.17;;;13.10;;
20144;SDS011;10233;50.814;6.590;2022-12-07T00:35:37;24.23;;;13.02;;
20144;SDS011;10233;50.814;6.590;2022-12-07T00:36:37;22.43;;;13.13;;
20144;SDS011;10233;50.814;6.590;2022-12-07T00:37:38;26.40;;;13.38;;
20144;SDS011;10233;50.814;6.590;2022-12-07T00:38:39;24.27;;;13.27;;
20144;SDS011;10233;50.814;6.590;2022-12-07T00:39:39;24.48;;;13.48;;
20144;SDS011;10233;50.814;6.590;2022-12-07T00:40:40;23.90;;;12.77;;
20144;SDS011;10233;50.814;6.590;2022-12-07T00:41:40;22.80;;;12.55;;
20144;SDS011;10233;50.814;6.590;2022-12-07T00:42:41;23.20;;;12.80;;
20144;SDS011;10233;50.814;6.590;2022-12-07T00:43:42;25.40;;;13.00;;
20144;SDS011;10233;50.814;6.590;2022-12-07T00:44:44;24.80;;;12.93;;
20144;SDS011;10233;50.814;6.590;2022-12-07T00:45:44;23.08;;;12.43;;
20144;SDS011;10233;50.814;6.590;2022-12-07T00:46:45;24.10;;;13.07;;
20144;SDS011;10233;50.814;6.590;2022-12-07T00:47:45;25.25;;;13.65;;
20144;SDS011;10233;50.814;6.590;2022-12-07T00:48:46;22.33;;;12.90;;
20144;SDS011;10233;50.814;6.590;2022-12-07T00:49:48;25.95;;;13.50;;
20144;SDS011;10233;50.814;6.590;2022-12-07T00:50:48;25.67;;;13.43;;
20144;SDS011;10233;50.814;6.590;2022-12-07T00:51:49;27.00;;;13.35;;
20144;SDS011;10233;50.814;6.590;2022-12-07T00:52:50;21.20;;;12.20;;
20144;SDS011;10233;50.814;6.590;2022-12-07T00:53:50;21.38;;;12.27;;
20144;SDS011;10233;50.814;6.590;2022-12-07T00:54:51;23.02;;;12.60;;
20144;SDS011;10233;50.814;6.590;2022-12-07T00:55:51;22.63;;;12.33;;
20144;SDS011;10233;50.814;6.590;2022-12-07T00:56:52;27.85;;;14.32;;
20144;SDS011;10233;50.814;6.590;2022-12-07T00:57:53;25.17;;;13.85;;
20144;SDS011;10233;50.814;6.590;2022-12-07T00:58:54;29.07;;;13.87;;
20144;SDS011;10233;50.814;6.590;2022-12-07T00:59:56;23.52;;;12.52;;
20144;SDS011;10233;50.814;6.590;2022-12-07T01:00:59;24.45;;;13.35;;
20144;SDS011;10233;50.814;6.590;2022-12-07T01:02:02;23.48;;;12.80;;
20144;SDS011;10233;50.814;6.590;2022-12-07T01:03:03;27.20;;;13.87;;
20144;SDS011;10233;50.814;6.590;2022-12-07T01:04:04;26.23;;;13.73;;
20144;SDS011;10233;50.814;6.590;2022-12-07T01:05:05;23.88;;;12.25;;
20144;SDS011;10233;50.814;6.590;2022-12-07T01:06:06;26.45;;;13.07;;
20144;SDS011;10233;50.814;6.590;2022-12-07T01:07:06;26.85;;;13.50;;
20144;SDS011;10233;50.814;6.590;2022-12-07T01:08:08;26.80;;;13.53;;
20144;SDS011;10233;50.814;6.590;2022-12-07T01:09:08;24.02;;;13.05;;
20144;SDS011;10233;50.814;6.590;2022-12-07T01:10:09;24.63;;;13.50;;
20144;SDS011;10233;50.814;6.590;2022-12-07T01:11:11;24.00;;;13.35;;
20144;SDS011;10233;50.814;6.590;2022-12-07T01:12:14;25.60;;;13.32;;
20144;SDS011;10233;50.814;6.590;2022-12-07T01:13:14;27.20;;;13.63;;
20144;SDS011;10233;50.814;6.590;2022-12-07T01:14:15;28.10;;;14.25;;
20144;SDS011;10233;50.814;6.590;2022-12-07T01:15:16;23.48;;;13.38;;
20144;SDS011;10233;50.814;6.590;2022-12-07T01:16:16;25.93;;;13.70;;
20144;SDS011;10233;50.814;6.590;2022-12-07T01:17:18;23.08;;;13.20;;
20144;SDS011;10233;50.814;6.590;2022-12-07T01:18:18;25.83;;;13.80;;
20144;SDS011;10233;50.814;6.590;2022-12-07T01:19:19;28.88;;;13.65;;
20144;SDS011;10233;50.814;6.590;2022-12-07T01:20:19;23.30;;;13.20;;
20144;SDS011;10233;50.814;6.590;2022-12-07T01:21:24;26.40;;;12.80;;
20144;SDS011;10233;50.814;6.590;2022-12-07T01:22:28;22.90;;;12.57;;
20144;SDS011;10233;50.814;6.590;2022-12-07T01:23:29;21.80;;;11.95;;
20144;SDS011;10233;50.814;6.590;2022-12-07T01:24:29;22.83;;;13.03;;
20144;SDS011;10233;50.814;6.590;2022-12-07T01:25:30;24.42;;;12.90;;
20144;SDS011;10233;50.814;6.590;2022-12-07T01:26:31;23.15;;;12.70;;
20144;SDS011;10233;50.814;6.590;2022-12-07T01:27:33;23.25;;;13.05;;
20144;SDS011;10233;50.814;6.590;2022-12-07T01:28:34;23.15;;;12.85;;
20144;SDS011;10233;50.814;6.590;2022-12-07T01:29:34;23.77;;;13.05;;
20144;SDS011;10233;50.814;6.590;2022-12-07T01:30:35;23.83;;;13.17;;
20144;SDS011;10233;50.814;6.590;2022-12-07T01:31:37;22.88;;;12.40;;
20144;SDS011;10233;50.814;6.590;2022-12-07T01:32:37;23.47;;;13.03;;
20144;SDS011;10233;50.814;6.590;2022-12-07T01:33:38;22.50;;;12.97;;
20144;SDS011;10233;50.814;6.590;2022-12-07T01:34:39;21.45;;;12.13;;
20144;SDS011;10233;50.814;6.590;2022-12-07T01:35:40;25.27;;;12.80;;
20144;SDS011;10233;50.814;6.590;2022-12-07T01:36:40;23.83;;;12.80;;
20144;SDS011;10233;50.814;6.590;2022-12-07T01:37:40;21.83;;;11.80;;
20144;SDS011;10233;50.814;6.590;2022-12-07T01:38:41;20.10;;;12.00;;
20144;SDS011;10233;50.814;6.590;2022-12-07T01:39:42;21.20;;;12.17;;
20144;SDS011;10233;50.814;6.590;2022-12-07T01:40:42;21.92;;;12.57;;
20144;SDS011;10233;50.814;6.590;2022-12-07T01:41:43;24.87;;;12.17;;
20144;SDS011;10233;50.814;6.590;2022-12-07T01:42:44;22.23;;;11.98;;
20144;SDS011;10233;50.814;6.590;2022-12-07T01:46:18;21.57;;;12.13;;
20144;SDS011;10233;50.814;6.590;2022-12-07T01:47:19;21.98;;;11.90;;
20144;SDS011;10233;50.814;6.590;2022-12-07T01:48:21;24.57;;;12.80;;
20144;SDS011;10233;50.814;6.590;2022-12-07T01:50:35;23.00;;;11.90;;
20144;SDS011;10233;50.814;6.590;2022-12-07T01:51:38;22.17;;;11.73;;
20144;SDS011;10233;50.814;6.590;2022-12-07T01:52:42;22.55;;;12.38;;
20144;SDS011;10233;50.814;6.590;2022-12-07T01:53:45;24.00;;;11.60;;
20144;SDS011;10233;50.814;6.590;2022-12-07T01:54:46;21.75;;;11.35;;
20144;SDS011;10233;50.814;6.590;2022-12-07T01:55:49;20.48;;;11.10;;
20144;SDS011;10233;50.814;6.590;2022-12-07T01:56:52;19.95;;;11.48;;
20144;SDS011;10233;50.814;6.590;2022-12-07T01:57:55;25.67;;;11.80;;
20144;SDS011;10233;50.814;6.590;2022-12-07T01:58:55;20.60;;;10.93;;
20144;SDS011;10233;50.814;6.590;2022-12-07T01:59:59;22.70;;;12.15;;
20144;SDS011;10233;50.814;6.590;2022-12-07T02:01:12;20.58;;;11.43;;
20144;SDS011;10233;50.814;6.590;2022-12-07T02:02:17;19.90;;;11.50;;
20144;SDS011;10233;50.814;6.590;2022-12-07T02:03:22;22.90;;;11.15;;
20144;SDS011;10233;50.814;6.590;2022-12-07T02:04:27;21.80;;;11.27;;
20144;SDS011;10233;50.814;6.590;2022-12-07T02:05:28;18.98;;;10.98;;
20144;SDS011;10233;50.814;6.590;2022-12-07T02:06:29;23.20;;;11.52;;
20144;SDS011;10233;50.814;6.590;2022-12-07T02:07:30;19.02;;;10.82;;
20144;SDS011;10233;50.814;6.590;2022-12-07T02:08:32;19.23;;;10.68;;
20144;SDS011;10233;50.814;6.590;2022-12-07T02:09:33;20.05;;;10.68;;
20144;SDS011;10233;50.814;6.590;2022-12-07T02:10:34;20.40;;;10.77;;
20144;SDS011;10233;50.814;6.590;2022-12-07T02:11:34;21.17;;;10.97;;
20144;SDS011;10233;50.814;6.590;2022-12-07T02:12:35;21.02;;;11.02;;
20144;SDS011;10233;50.814;6.590;2022-12-07T02:13:36;18.80;;;10.47;;
20144;SDS011;10233;50.814;6.590;2022-12-07T02:14:39;21.00;;;11.23;;
20144;SDS011;10233;50.814;6.590;2022-12-07T02:18:09;23.70;;;11.63;;
20144;SDS011;10233;50.814;6.590;2022-12-07T02:22:34;17.73;;;10.57;;
20144;SDS011;10233;50.814;6.590;2022-12-07T02:30:42;22.05;;;11.27;;
20144;SDS011;10233;50.814;6.590;2022-12-07T02:33:35;18.48;;;11.27;;
20144;SDS011;10233;50.814;6.590;2022-12-07T02:36:05;20.15;;;11.80;;
20144;SDS011;10233;50.814;6.590;2022-12-07T02:37:18;20.17;;;11.13;;
20144;SDS011;10233;50.814;6.590;2022-12-07T02:38:50;21.20;;;11.55;;
20144;SDS011;10233;50.814;6.590;2022-12-07T02:40:07;20.58;;;11.30;;
20144;SDS011;10233;50.814;6.590;2022-12-07T02:41:56;20.38;;;11.20;;
20144;SDS011;10233;50.814;6.590;2022-12-07T02:42:41;20.35;;;12.02;;
20144;SDS011;10233;50.814;6.590;2022-12-07T02:43:47;20.13;;;11.45;;
20144;SDS011;10233;50.814;6.590;2022-12-07T02:44:52;22.17;;;12.07;;
20144;SDS011;10233;50.814;6.590;2022-12-07T02:45:54;20.87;;;11.17;;
20144;SDS011;10233;50.814;6.590;2022-12-07T02:47:03;20.92;;;11.45;;
20144;SDS011;10233;50.814;6.590;2022-12-07T02:48:07;21.83;;;11.93;;
20144;SDS011;10233;50.814;6.590;2022-12-07T02:49:11;23.30;;;12.40;;
20144;SDS011;10233;50.814;6.590;2022-12-07T02:50:12;23.17;;;12.02;;
20144;SDS011;10233;50.814;6.590;2022-12-07T02:51:13;20.80;;;12.43;;
20144;SDS011;10233;50.814;6.590;2022-12-07T02:52:13;22.03;;;12.83;;
20144;SDS011;10233;50.814;6.590;2022-12-07T02:53:36;21.77;;;11.93;;
20144;SDS011;10233;50.814;6.590;2022-12-07T02:54:37;24.20;;;12.18;;
20144;SDS011;10233;50.814;6.590;2022-12-07T02:55:38;23.58;;;12.25;;
20144;SDS011;10233;50.814;6.590;2022-12-07T03:00:48;23.20;;;13.00;;
20144;SDS011;10233;50.814;6.590;2022-12-07T03:02:11;22.73;;;12.70;;
20144;SDS011;10233;50.814;6.590;2022-12-07T03:03:25;22.97;;;12.73;;
20144;SDS011;10233;50.814;6.590;2022-12-07T03:07:29;25.63;;;13.43;;
20144;SDS011;10233;50.814;6.590;2022-12-07T03:09:59;24.38;;;13.32;;
20144;SDS011;10233;50.814;6.590;2022-12-07T03:11:10;27.40;;;13.40;;
20144;SDS011;10233;50.814;6.590;2022-12-07T03:12:20;24.55;;;12.88;;
20144;SDS011;10233;50.814;6.590;2022-12-07T03:13:37;21.92;;;13.43;;
20144;SDS011;10233;50.814;6.590;2022-12-07T03:15:00;25.55;;;13.82;;
20144;SDS011;10233;50.814;6.590;2022-12-07T03:17:08;25.73;;;13.30;;
20144;SDS011;10233;50.814;6.590;2022-12-07T03:18:15;25.58;;;13.68;;
20144;SDS011;10233;50.814;6.590;2022-12-07T03:19:19;26.15;;;13.82;;
20144;SDS011;10233;50.814;6.590;2022-12-07T03:20:21;25.90;;;13.68;;
20144;SDS011;10233;50.814;6.590;2022-12-07T03:21:27;25.42;;;13.73;;
20144;SDS011;10233;50.814;6.590;2022-12-07T03:22:37;24.42;;;13.57;;
20144;SDS011;10233;50.814;6.590;2022-12-07T03:23:41;26.35;;;13.43;;
20144;SDS011;10233;50.814;6.590;2022-12-07T03:24:47;28.85;;;14.18;;
20144;SDS011;10233;50.814;6.590;2022-12-07T03:25:53;26.20;;;14.38;;
20144;SDS011;10233;50.814;6.590;2022-12-07T03:27:04;26.05;;;13.85;;
20144;SDS011;10233;50.814;6.590;2022-12-07T03:28:10;26.23;;;13.75;;
20144;SDS011;10233;50.814;6.590;2022-12-07T03:29:17;25.85;;;13.82;;
20144;SDS011;10233;50.814;6.590;2022-12-07T03:30:27;28.35;;;14.63;;
20144;SDS011;10233;50.814;6.590;2022-12-07T03:31:33;26.48;;;13.57;;
20144;SDS011;10233;50.814;6.590;2022-12-07T03:32:50;30.88;;;14.48;;
20144;SDS011;10233;50.814;6.590;2022-12-07T03:33:59;29.33;;;14.80;;
20144;SDS011;10233;50.814;6.590;2022-12-07T03:35:25;37.50;;;17.25;;
20144;SDS011;10233;50.814;6.590;2022-12-07T03:36:35;27.88;;;14.30;;
20144;SDS011;10233;50.814;6.590;2022-12-07T03:40:16;27.80;;;14.10;;
20144;SDS011;10233;50.814;6.590;2022-12-07T03:41:28;28.95;;;14.10;;
20144;SDS011;10233;50.814;6.590;2022-12-07T03:42:31;28.67;;;14.40;;
20144;SDS011;10233;50.814;6.590;2022-12-07T03:43:33;28.60;;;14.25;;
20144;SDS011;10233;50.814;6.590;2022-12-07T03:44:35;31.45;;;14.23;;
20144;SDS011;10233;50.814;6.590;2022-12-07T03:45:38;25.20;;;13.93;;
20144;SDS011;10233;50.814;6.590;2022-12-07T03:51:06;25.60;;;12.90;;
20144;SDS011;10233;50.814;6.590;2022-12-07T03:52:44;26.20;;;13.52;;
20144;SDS011;10233;50.814;6.590;2022-12-07T03:53:54;27.85;;;13.40;;
20144;SDS011;10233;50.814;6.590;2022-12-07T03:55:11;24.83;;;12.30;;
20144;SDS011;10233;50.814;6.590;2022-12-07T03:56:19;25.88;;;13.30;;
20144;SDS011;10233;50.814;6.590;2022-12-07T03:57:21;24.85;;;13.15;;
20144;SDS011;10233;50.814;6.590;2022-12-07T03:58:24;25.95;;;12.90;;
20144;SDS011;10233;50.814;6.590;2022-12-07T03:59:25;25.80;;;13.40;;
20144;SDS011;10233;50.814;6.590;2022-12-07T04:00:26;25.98;;;13.32;;
20144;SDS011;10233;50.814;6.590;2022-12-07T04:01:27;25.20;;;12.80;;
20144;SDS011;10233;50.814;6.590;2022-12-07T04:02:28;24.60;;;12.60;;
20144;SDS011;10233;50.814;6.590;2022-12-07T04:03:29;21.02;;;11.20;;
20144;SDS011;10233;50.814;6.590;2022-12-07T04:04:29;25.13;;;12.67;;
20144;SDS011;10233;50.814;6.590;2022-12-07T04:05:30;23.98;;;12.32;;
20144;SDS011;10233;50.814;6.590;2022-12-07T04:06:31;21.50;;;11.63;;
20144;SDS011;10233;50.814;6.590;2022-12-07T04:07:31;26.03;;;12.13;;
20144;SDS011;10233;50.814;6.590;2022-12-07T04:08:32;22.92;;;12.43;;
20144;SDS011;10233;50.814;6.590;2022-12-07T04:09:32;25.60;;;11.90;;
20144;SDS011;10233;50.814;6.590;2022-12-07T04:10:33;25.10;;;12.55;;
20144;SDS011;10233;50.814;6.590;2022-12-07T04:11:34;24.47;;;11.93;;
20144;SDS011;10233;50.814;6.590;2022-12-07T04:12:34;30.40;;;12.87;;
20144;SDS011;10233;50.814;6.590;2022-12-07T04:13:34;25.40;;;13.00;;
20144;SDS011;10233;50.814;6.590;2022-12-07T04:14:55;23.95;;;12.73;;
20144;SDS011;10233;50.814;6.590;2022-12-07T04:15:55;23.63;;;12.00;;
20144;SDS011;10233;50.814;6.590;2022-12-07T04:16:56;25.00;;;12.80;;
20144;SDS011;10233;50.814;6.590;2022-12-07T04:17:58;26.67;;;12.52;;
20144;SDS011;10233;50.814;6.590;2022-12-07T04:18:58;26.90;;;13.07;;
20144;SDS011;10233;50.814;6.590;2022-12-07T04:19:59;26.53;;;13.07;;
20144;SDS011;10233;50.814;6.590;2022-12-07T04:20:59;23.95;;;12.40;;
20144;SDS011;10233;50.814;6.590;2022-12-07T04:22:00;23.40;;;12.97;;
20144;SDS011;10233;50.814;6.590;2022-12-07T04:23:02;22.73;;;12.20;;
20144;SDS011;10233;50.814;6.590;2022-12-07T04:24:03;23.80;;;12.30;;
20144;SDS011;10233;50.814;6.590;2022-12-07T04:25:04;22.85;;;11.88;;
20144;SDS011;10233;50.814;6.590;2022-12-07T04:26:04;23.67;;;12.02;;
20144;SDS011;10233;50.814;6.590;2022-12-07T04:27:05;25.42;;;12.30;;
20144;SDS011;10233;50.814;6.590;2022-12-07T04:28:05;24.13;;;11.93;;
20144;SDS011;10233;50.814;6.590;2022-12-07T04:29:06;20.48;;;11.32;;
20144;SDS011;10233;50.814;6.590;2022-12-07T04:30:07;25.35;;;12.38;;
20144;SDS011;10233;50.814;6.590;2022-12-07T04:31:08;21.30;;;11.52;;
20144;SDS011;10233;50.814;6.590;2022-12-07T04:32:09;24.73;;;12.68;;
20144;SDS011;10233;50.814;6.590;2022-12-07T04:33:10;24.47;;;11.87;;
20144;SDS011;10233;50.814;6.590;2022-12-07T04:34:11;25.63;;;12.73;;
20144;SDS011;10233;50.814;6.590;2022-12-07T04:35:12;22.27;;;11.98;;
20144;SDS011;10233;50.814;6.590;2022-12-07T04:36:13;22.70;;;12.35;;
20144;SDS011;10233;50.814;6.590;2022-12-07T04:37:14;23.60;;;12.02;;
20144;SDS011;10233;50.814;6.590;2022-12-07T04:38:14;23.03;;;12.27;;
20144;SDS011;10233;50.814;6.590;2022-12-07T04:39:19;25.88;;;11.93;;
20144;SDS011;10233;50.814;6.590;2022-12-07T04:40:22;21.80;;;11.80;;
20144;SDS011;10233;50.814;6.590;2022-12-07T04:41:23;26.17;;;12.00;;
20144;SDS011;10233;50.814;6.590;2022-12-07T04:42:26;24.83;;;12.43;;
20144;SDS011;10233;50.814;6.590;2022-12-07T04:43:27;22.75;;;12.13;;
20144;SDS011;10233;50.814;6.590;2022-12-07T04:44:28;21.90;;;11.97;;
20144;SDS011;10233;50.814;6.590;2022-12-07T04:45:29;22.45;;;11.50;;
20144;SDS011;10233;50.814;6.590;2022-12-07T04:46:30;25.50;;;11.25;;
20144;SDS011;10233;50.814;6.590;2022-12-07T04:47:31;24.92;;;11.07;;
20144;SDS011;10233;50.814;6.590;2022-12-07T04:48:32;23.30;;;11.15;;
20144;SDS011;10233;50.814;6.590;2022-12-07T04:49:32;25.10;;;11.93;;
20144;SDS011;10233;50.814;6.590;2022-12-07T04:50:34;22.52;;;11.30;;
20144;SDS011;10233;50.814;6.590;2022-12-07T04:51:35;21.65;;;11.45;;
20144;SDS011;10233;50.814;6.590;2022-12-07T04:52:36;22.85;;;11.55;;
20144;SDS011;10233;50.814;6.590;2022-12-07T04:53:37;21.87;;;10.70;;
20144;SDS011;10233;50.814;6.590;2022-12-07T04:54:37;20.60;;;11.40;;
20144;SDS011;10233;50.814;6.590;2022-12-07T04:55:38;22.70;;;11.33;;
20144;SDS011;10233;50.814;6.590;2022-12-07T04:56:38;21.63;;;10.93;;
20144;SDS011;10233;50.814;6.590;2022-12-07T04:57:39;21.88;;;11.50;;
20144;SDS011;10233;50.814;6.590;2022-12-07T04:58:39;24.50;;;11.50;;
20144;SDS011;10233;50.814;6.590;2022-12-07T04:59:40;22.03;;;11.03;;
20144;SDS011;10233;50.814;6.590;2022-12-07T05:00:40;20.85;;;11.00;;
20144;SDS011;10233;50.814;6.590;2022-12-07T05:01:41;24.90;;;12.20;;
20144;SDS011;10233;50.814;6.590;2022-12-07T05:02:41;24.25;;;12.13;;
20144;SDS011;10233;50.814;6.590;2022-12-07T05:03:42;22.87;;;12.13;;
20144;SDS011;10233;50.814;6.590;2022-12-07T05:04:42;20.80;;;11.45;;
20144;SDS011;10233;50.814;6.590;2022-12-07T05:05:43;23.17;;;11.80;;
20144;SDS011;10233;50.814;6.590;2022-12-07T05:06:43;23.37;;;11.90;;
20144;SDS011;10233;50.814;6.590;2022-12-07T05:07:44;25.05;;;11.55;;
20144;SDS011;10233;50.814;6.590;2022-12-07T05:08:44;23.33;;;11.37;;
20144;SDS011;10233;50.814;6.590;2022-12-07T05:09:45;26.45;;;12.35;;
20144;SDS011;10233;50.814;6.590;2022-12-07T05:10:45;25.27;;;11.67;;
20144;SDS011;10233;50.814;6.590;2022-12-07T05:11:48;24.30;;;11.60;;
20144;SDS011;10233;50.814;6.590;2022-12-07T05:12:48;21.13;;;11.83;;
20144;SDS011;10233;50.814;6.590;2022-12-07T05:13:49;22.73;;;11.50;;
20144;SDS011;10233;50.814;6.590;2022-12-07T05:14:50;20.90;;;10.40;;
20144;SDS011;10233;50.814;6.590;2022-12-07T05:15:50;24.83;;;11.90;;
20144;SDS011;10233;50.814;6.590;2022-12-07T05:16:51;23.55;;;11.15;;
20144;SDS011;10233;50.814;6.590;2022-12-07T05:17:53;23.50;;;12.27;;
20144;SDS011;10233;50.814;6.590;2022-12-07T05:18:54;20.70;;;10.90;;
20144;SDS011;10233;50.814;6.590;2022-12-07T05:19:54;21.25;;;10.57;;
20144;SDS011;10233;50.814;6.590;2022-12-07T05:20:55;22.23;;;12.00;;
20144;SDS011;10233;50.814;6.590;2022-12-07T05:21:55;25.10;;;11.43;;
20144;SDS011;10233;50.814;6.590;2022-12-07T05:22:56;21.80;;;11.20;;
20144;SDS011;10233;50.814;6.590;2022-12-07T05:23:58;21.55;;;11.32;;
20144;SDS011;10233;50.814;6.590;2022-12-07T05:24:58;23.17;;;11.87;;
20144;SDS011;10233;50.814;6.590;2022-12-07T05:25:59;23.13;;;12.25;;
20144;SDS011;10233;50.814;6.590;2022-12-07T05:26:59;24.83;;;11.73;;
20144;SDS011;10233;50.814;6.590;2022-12-07T05:28:00;22.73;;;12.23;;
20144;SDS011;10233;50.814;6.590;2022-12-07T05:29:00;22.83;;;11.90;;
20144;SDS011;10233;50.814;6.590;2022-12-07T05:30:01;22.25;;;11.80;;
20144;SDS011;10233;50.814;6.590;2022-12-07T05:31:01;22.73;;;12.30;;
20144;SDS011;10233;50.814;6.590;2022-12-07T05:32:02;21.65;;;12.02;;
20144;SDS011;10233;50.814;6.590;2022-12-07T05:33:02;23.43;;;11.47;;
20144;SDS011;10233;50.814;6.590;2022-12-07T05:34:03;21.13;;;11.05;;
20144;SDS011;10233;50.814;6.590;2022-12-07T05:35:04;22.55;;;11.70;;
20144;SDS011;10233;50.814;6.590;2022-12-07T05:36:04;21.95;;;11.43;;
20144;SDS011;10233;50.814;6.590;2022-12-07T05:37:07;22.02;;;11.93;;
20144;SDS011;10233;50.814;6.590;2022-12-07T05:38:07;28.00;;;12.77;;
20144;SDS011;10233;50.814;6.590;2022-12-07T05:39:08;22.93;;;11.50;;
20144;SDS011;10233;50.814;6.590;2022-12-07T05:40:09;21.48;;;11.55;;
20144;SDS011;10233;50.814;6.590;2022-12-07T05:41:12;20.58;;;11.10;;
20144;SDS011;10233;50.814;6.590;2022-12-07T05:42:34;23.90;;;11.30;;
20144;SDS011;10233;50.814;6.590;2022-12-07T05:43:35;22.63;;;11.30;;
20144;SDS011;10233;50.814;6.590;2022-12-07T05:44:35;23.52;;;11.60;;
20144;SDS011;10233;50.814;6.590;2022-12-07T05:45:36;20.83;;;11.50;;
20144;SDS011;10233;50.814;6.590;2022-12-07T05:46:38;24.25;;;11.88;;
20144;SDS011;10233;50.814;6.590;2022-12-07T05:47:38;23.87;;;11.90;;
20144;SDS011;10233;50.814;6.590;2022-12-07T05:48:39;21.75;;;11.00;;
20144;SDS011;10233;50.814;6.590;2022-12-07T05:49:39;21.07;;;11.17;;
20144;SDS011;10233;50.814;6.590;2022-12-07T05:50:40;22.63;;;11.20;;
20144;SDS011;10233;50.814;6.590;2022-12-07T05:51:40;20.63;;;10.73;;
20144;SDS011;10233;50.814;6.590;2022-12-07T05:52:42;19.95;;;10.63;;
20144;SDS011;10233;50.814;6.590;2022-12-07T05:53:43;21.80;;;11.32;;
20144;SDS011;10233;50.814;6.590;2022-12-07T05:54:43;21.43;;;10.77;;
20144;SDS011;10233;50.814;6.590;2022-12-07T05:55:43;24.75;;;11.57;;
20144;SDS011;10233;50.814;6.590;2022-12-07T05:56:44;24.70;;;11.93;;
20144;SDS011;10233;50.814;6.590;2022-12-07T05:57:44;24.90;;;11.75;;
20144;SDS011;10233;50.814;6.590;2022-12-07T05:59:05;26.08;;;12.10;;
20144;SDS011;10233;50.814;6.590;2022-12-07T06:00:24;23.90;;;11.40;;
20144;SDS011;10233;50.814;6.590;2022-12-07T06:01:24;21.55;;;10.77;;
20144;SDS011;10233;50.814;6.590;2022-12-07T06:02:25;23.80;;;10.73;;
20144;SDS011;10233;50.814;6.590;2022-12-07T06:03:25;22.00;;;11.37;;
20144;SDS011;10233;50.814;6.590;2022-12-07T06:04:27;34.75;;;15.70;;
20144;SDS011;10233;50.814;6.590;2022-12-07T06:05:29;26.67;;;13.30;;
20144;SDS011;10233;50.814;6.590;2022-12-07T06:06:29;24.00;;;12.40;;
20144;SDS011;10233;50.814;6.590;2022-12-07T06:07:30;26.58;;;12.07;;
20144;SDS011;10233;50.814;6.590;2022-12-07T06:08:30;24.77;;;11.83;;
20144;SDS011;10233;50.814;6.590;2022-12-07T06:09:31;26.13;;;12.45;;
20144;SDS011;10233;50.814;6.590;2022-12-07T06:10:33;22.70;;;11.77;;
20144;SDS011;10233;50.814;6.590;2022-12-07T06:11:33;24.67;;;12.13;;
20144;SDS011;10233;50.814;6.590;2022-12-07T06:12:52;24.70;;;11.52;;
20144;SDS011;10233;50.814;6.590;2022-12-07T06:13:53;24.30;;;11.83;;
20144;SDS011;10233;50.814;6.590;2022-12-07T06:14:53;27.30;;;11.93;;
20144;SDS011;10233;50.814;6.590;2022-12-07T06:15:54;23.53;;;12.33;;
20144;SDS011;10233;50.814;6.590;2022-12-07T06:16:54;25.65;;;12.00;;
20144;SDS011;10233;50.814;6.590;2022-12-07T06:17:55;24.40;;;11.57;;
20144;SDS011;10233;50.814;6.590;2022-12-07T06:18:55;28.30;;;13.25;;
20144;SDS011;10233;50.814;6.590;2022-12-07T06:19:56;27.03;;;12.23;;
20144;SDS011;10233;50.814;6.590;2022-12-07T06:20:56;23.90;;;12.38;;
20144;SDS011;10233;50.814;6.590;2022-12-07T06:21:57;25.53;;;11.93;;
20144;SDS011;10233;50.814;6.590;2022-12-07T06:22:58;22.65;;;12.18;;
20144;SDS011;10233;50.814;6.590;2022-12-07T06:23:58;25.67;;;12.65;;
20144;SDS011;10233;50.814;6.590;2022-12-07T06:24:59;26.17;;;12.47;;
20144;SDS011;10233;50.814;6.590;2022-12-07T06:25:59;24.85;;;12.23;;
20144;SDS011;10233;50.814;6.590;2022-12-07T06:26:59;24.63;;;12.30;;
20144;SDS011;10233;50.814;6.590;2022-12-07T06:28:00;26.48;;;12.68;;
20144;SDS011;10233;50.814;6.590;2022-12-07T06:29:01;22.27;;;11.30;;
20144;SDS011;10233;50.814;6.590;2022-12-07T06:30:01;22.60;;;12.13;;
20144;SDS011;10233;50.814;6.590;2022-12-07T06:31:06;23.88;;;12.07;;
20144;SDS011;10233;50.814;6.590;2022-12-07T06:32:07;26.53;;;11.63;;
20144;SDS011;10233;50.814;6.590;2022-12-07T06:33:08;22.20;;;11.80;;
20144;SDS011;10233;50.814;6.590;2022-12-07T06:34:09;21.90;;;12.07;;
20144;SDS011;10233;50.814;6.590;2022-12-07T06:35:11;25.20;;;12.38;;
20144;SDS011;10233;50.814;6.590;2022-12-07T06:36:12;25.77;;;12.40;;
20144;SDS011;10233;50.814;6.590;2022-12-07T06:37:13;23.05;;;11.82;;
20144;SDS011;10233;50.814;6.590;2022-12-07T06:38:13;23.20;;;11.27;;
20144;SDS011;10233;50.814;6.590;2022-12-07T06:39:14;22.13;;;11.83;;
20144;SDS011;10233;50.814;6.590;2022-12-07T06:40:14;21.63;;;11.50;;
20144;SDS011;10233;50.814;6.590;2022-12-07T06:41:15;25.85;;;12.00;;
20144;SDS011;10233;50.814;6.590;2022-12-07T06:42:15;24.40;;;11.38;;
20144;SDS011;10233;50.814;6.590;2022-12-07T06:43:16;23.83;;;11.47;;